sensor_id;sensor_type;location;lat;lon;timestamp;temperature;humidity
67901;DHT22;54700;51.796;10.956;2022-07-04T00:01:32;18.10;59.30
67901;DHT22;54700;51.796;10.956;2022-07-04T00:03:59;18.10;59.20
67901;DHT22;54700;51.796;10.956;2022-07-04T00:06:26;18.10;59.20
67901;DHT22;54700;51.796;10.956;2022-07-04T00:08:54;18.10;59.20
67901;DHT22;54700;51.796;10.956;2022-07-04T00:11:21;18.00;59.40
67901;DHT22;54700;51.796;10.956;2022-07-04T00:13:47;18.00;59.50
67901;DHT22;54700;51.796;10.956;2022-07-04T00:16:14;18.00;59.60
67901;DHT22;54700;51.796;10.956;2022-07-04T00:18:41;17.90;59.60
67901;DHT22;54700;51.796;10.956;2022-07-04T00:21:08;17.90;59.60
67901;DHT22;54700;51.796;10.956;2022-07-04T00:23:35;17.90;59.70
67901;DHT22;54700;51.796;10.956;2022-07-04T00:26:03;17.90;59.40
67901;DHT22;54700;51.796;10.956;2022-07-04T00:28:30;17.90;59.50
67901;DHT22;54700;51.796;10.956;2022-07-04T00:30:56;17.80;59.60
67901;DHT22;54700;51.796;10.956;2022-07-04T00:33:23;17.90;59.40
67901;DHT22;54700;51.796;10.956;2022-07-04T00:35:50;17.80;59.30
67901;DHT22;54700;51.796;10.956;2022-07-04T00:38:17;17.80;59.30
67901;DHT22;54700;51.796;10.956;2022-07-04T00:40:44;17.80;59.50
67901;DHT22;54700;51.796;10.956;2022-07-04T00:43:12;17.70;59.50
67901;DHT22;54700;51.796;10.956;2022-07-04T00:45:39;17.70;59.50
67901;DHT22;54700;51.796;10.956;2022-07-04T00:48:05;17.70;59.40
67901;DHT22;54700;51.796;10.956;2022-07-04T00:50:32;17.70;59.10
67901;DHT22;54700;51.796;10.956;2022-07-04T00:52:59;17.70;59.00
67901;DHT22;54700;51.796;10.956;2022-07-04T00:55:27;17.70;58.80
67901;DHT22;54700;51.796;10.956;2022-07-04T00:57:54;17.70;58.70
67901;DHT22;54700;51.796;10.956;2022-07-04T01:00:22;17.70;58.40
67901;DHT22;54700;51.796;10.956;2022-07-04T01:02:49;17.70;58.50
67901;DHT22;54700;51.796;10.956;2022-07-04T01:05:16;17.70;58.40
67901;DHT22;54700;51.796;10.956;2022-07-04T01:07:43;17.70;58.40
67901;DHT22;54700;51.796;10.956;2022-07-04T01:10:10;17.60;58.60
67901;DHT22;54700;51.796;10.956;2022-07-04T01:12:37;17.70;58.50
67901;DHT22;54700;51.796;10.956;2022-07-04T01:15:05;17.70;58.50
67901;DHT22;54700;51.796;10.956;2022-07-04T01:17:34;17.60;58.30
67901;DHT22;54700;51.796;10.956;2022-07-04T01:20:02;17.60;58.40
67901;DHT22;54700;51.796;10.956;2022-07-04T01:22:31;17.60;58.50
67901;DHT22;54700;51.796;10.956;2022-07-04T01:24:58;17.60;58.50
67901;DHT22;54700;51.796;10.956;2022-07-04T01:27:25;17.60;58.40
67901;DHT22;54700;51.796;10.956;2022-07-04T01:29:53;17.50;58.30
67901;DHT22;54700;51.796;10.956;2022-07-04T01:32:19;17.50;58.30
67901;DHT22;54700;51.796;10.956;2022-07-04T01:34:46;17.50;58.30
67901;DHT22;54700;51.796;10.956;2022-07-04T01:37:13;17.50;58.20
67901;DHT22;54700;51.796;10.956;2022-07-04T01:39:41;17.50;58.10
67901;DHT22;54700;51.796;10.956;2022-07-04T01:42:09;17.50;58.20
67901;DHT22;54700;51.796;10.956;2022-07-04T01:44:36;17.40;58.00
67901;DHT22;54700;51.796;10.956;2022-07-04T01:47:03;17.40;58.10
67901;DHT22;54700;51.796;10.956;2022-07-04T01:49:30;17.40;58.10
67901;DHT22;54700;51.796;10.956;2022-07-04T01:51:57;17.40;58.00
67901;DHT22;54700;51.796;10.956;2022-07-04T01:54:24;17.50;58.10
67901;DHT22;54700;51.796;10.956;2022-07-04T01:56:53;17.50;58.20
67901;DHT22;54700;51.796;10.956;2022-07-04T01:59:20;17.40;58.20
67901;DHT22;54700;51.796;10.956;2022-07-04T02:02:08;17.40;58.30
67901;DHT22;54700;51.796;10.956;2022-07-04T02:04:33;17.50;58.10
67901;DHT22;54700;51.796;10.956;2022-07-04T02:07:00;17.50;58.00
67901;DHT22;54700;51.796;10.956;2022-07-04T02:09:27;17.50;57.90
67901;DHT22;54700;51.796;10.956;2022-07-04T02:11:57;17.50;57.70
67901;DHT22;54700;51.796;10.956;2022-07-04T02:14:41;17.50;57.70
67901;DHT22;54700;51.796;10.956;2022-07-04T02:17:09;17.60;57.80
67901;DHT22;54700;51.796;10.956;2022-07-04T02:19:35;17.60;57.50
67901;DHT22;54700;51.796;10.956;2022-07-04T02:22:02;17.60;57.40
67901;DHT22;54700;51.796;10.956;2022-07-04T02:24:29;17.60;57.10
67901;DHT22;54700;51.796;10.956;2022-07-04T02:26:58;17.60;57.20
67901;DHT22;54700;51.796;10.956;2022-07-04T02:29:24;17.60;57.00
67901;DHT22;54700;51.796;10.956;2022-07-04T02:31:51;17.60;57.00
67901;DHT22;54700;51.796;10.956;2022-07-04T02:34:20;17.50;56.80
67901;DHT22;54700;51.796;10.956;2022-07-04T02:36:47;17.50;57.00
67901;DHT22;54700;51.796;10.956;2022-07-04T02:39:14;17.50;57.20
67901;DHT22;54700;51.796;10.956;2022-07-04T02:41:41;17.50;57.40
67901;DHT22;54700;51.796;10.956;2022-07-04T02:44:09;17.40;57.60
67901;DHT22;54700;51.796;10.956;2022-07-04T02:46:36;17.40;57.60
67901;DHT22;54700;51.796;10.956;2022-07-04T02:49:03;17.40;57.50
67901;DHT22;54700;51.796;10.956;2022-07-04T02:51:30;17.40;57.50
67901;DHT22;54700;51.796;10.956;2022-07-04T02:53:57;17.30;57.40
67901;DHT22;54700;51.796;10.956;2022-07-04T02:56:23;17.30;57.70
67901;DHT22;54700;51.796;10.956;2022-07-04T02:58:50;17.20;57.70
67901;DHT22;54700;51.796;10.956;2022-07-04T03:01:18;17.20;58.00
67901;DHT22;54700;51.796;10.956;2022-07-04T03:03:45;17.20;58.00
67901;DHT22;54700;51.796;10.956;2022-07-04T03:06:13;17.20;58.30
67901;DHT22;54700;51.796;10.956;2022-07-04T03:08:40;17.20;58.50
67901;DHT22;54700;51.796;10.956;2022-07-04T03:11:07;17.20;58.90
67901;DHT22;54700;51.796;10.956;2022-07-04T03:13:35;17.20;58.90
67901;DHT22;54700;51.796;10.956;2022-07-04T03:16:02;17.10;58.90
67901;DHT22;54700;51.796;10.956;2022-07-04T03:18:31;17.20;59.20
67901;DHT22;54700;51.796;10.956;2022-07-04T03:20:58;17.20;59.50
67901;DHT22;54700;51.796;10.956;2022-07-04T03:23:25;17.10;60.20
67901;DHT22;54700;51.796;10.956;2022-07-04T03:25:51;16.90;61.00
67901;DHT22;54700;51.796;10.956;2022-07-04T03:28:18;16.80;61.00
67901;DHT22;54700;51.796;10.956;2022-07-04T03:30:45;16.80;61.40
67901;DHT22;54700;51.796;10.956;2022-07-04T03:33:12;16.80;61.70
67901;DHT22;54700;51.796;10.956;2022-07-04T03:35:40;16.80;62.10
67901;DHT22;54700;51.796;10.956;2022-07-04T03:38:07;16.80;62.20
67901;DHT22;54700;51.796;10.956;2022-07-04T03:40:34;16.80;62.10
67901;DHT22;54700;51.796;10.956;2022-07-04T03:43:01;16.80;62.30
67901;DHT22;54700;51.796;10.956;2022-07-04T03:45:28;16.90;62.40
67901;DHT22;54700;51.796;10.956;2022-07-04T03:47:55;16.90;62.10
67901;DHT22;54700;51.796;10.956;2022-07-04T03:50:22;16.90;62.20
67901;DHT22;54700;51.796;10.956;2022-07-04T03:52:51;17.00;62.40
67901;DHT22;54700;51.796;10.956;2022-07-04T03:55:18;17.00;61.50
67901;DHT22;54700;51.796;10.956;2022-07-04T03:57:45;17.10;61.40
67901;DHT22;54700;51.796;10.956;2022-07-04T04:00:12;17.10;61.40
67901;DHT22;54700;51.796;10.956;2022-07-04T04:02:40;17.00;61.20
67901;DHT22;54700;51.796;10.956;2022-07-04T04:05:07;17.00;61.50
67901;DHT22;54700;51.796;10.956;2022-07-04T04:07:53;17.00;61.50
67901;DHT22;54700;51.796;10.956;2022-07-04T04:10:20;17.10;62.00
67901;DHT22;54700;51.796;10.956;2022-07-04T04:12:48;17.10;61.60
67901;DHT22;54700;51.796;10.956;2022-07-04T04:15:15;17.10;61.30
67901;DHT22;54700;51.796;10.956;2022-07-04T04:17:43;17.20;61.80
67901;DHT22;54700;51.796;10.956;2022-07-04T04:20:10;17.40;61.90
67901;DHT22;54700;51.796;10.956;2022-07-04T04:22:37;17.50;60.90
67901;DHT22;54700;51.796;10.956;2022-07-04T04:25:05;17.50;61.30
67901;DHT22;54700;51.796;10.956;2022-07-04T04:27:33;17.50;60.60
67901;DHT22;54700;51.796;10.956;2022-07-04T04:30:00;17.60;60.60
67901;DHT22;54700;51.796;10.956;2022-07-04T04:32:27;17.70;60.20
67901;DHT22;54700;51.796;10.956;2022-07-04T04:34:54;17.70;60.20
67901;DHT22;54700;51.796;10.956;2022-07-04T04:37:20;17.50;60.30
67901;DHT22;54700;51.796;10.956;2022-07-04T04:39:47;17.50;60.60
67901;DHT22;54700;51.796;10.956;2022-07-04T04:42:15;17.40;60.80
67901;DHT22;54700;51.796;10.956;2022-07-04T04:44:42;17.40;61.30
67901;DHT22;54700;51.796;10.956;2022-07-04T04:47:09;17.30;61.30
67901;DHT22;54700;51.796;10.956;2022-07-04T04:49:35;17.40;61.60
67901;DHT22;54700;51.796;10.956;2022-07-04T04:52:02;17.50;61.30
67901;DHT22;54700;51.796;10.956;2022-07-04T04:54:31;17.50;61.30
67901;DHT22;54700;51.796;10.956;2022-07-04T04:57:07;17.60;61.50
67901;DHT22;54700;51.796;10.956;2022-07-04T04:59:36;17.70;61.60
67901;DHT22;54700;51.796;10.956;2022-07-04T05:02:03;17.80;61.50
67901;DHT22;54700;51.796;10.956;2022-07-04T05:04:30;17.90;61.20
67901;DHT22;54700;51.796;10.956;2022-07-04T05:06:57;18.00;61.40
67901;DHT22;54700;51.796;10.956;2022-07-04T05:09:24;18.00;61.20
67901;DHT22;54700;51.796;10.956;2022-07-04T05:11:51;18.20;61.20
67901;DHT22;54700;51.796;10.956;2022-07-04T05:14:26;18.30;60.80
67901;DHT22;54700;51.796;10.956;2022-07-04T05:16:55;18.40;60.80
67901;DHT22;54700;51.796;10.956;2022-07-04T05:19:22;18.50;60.70
67901;DHT22;54700;51.796;10.956;2022-07-04T05:21:49;18.70;59.80
67901;DHT22;54700;51.796;10.956;2022-07-04T05:24:18;19.20;58.50
67901;DHT22;54700;51.796;10.956;2022-07-04T05:26:44;19.70;57.30
67901;DHT22;54700;51.796;10.956;2022-07-04T05:29:11;20.20;55.80
67901;DHT22;54700;51.796;10.956;2022-07-04T05:31:38;20.50;54.80
67901;DHT22;54700;51.796;10.956;2022-07-04T05:34:07;20.50;54.40
67901;DHT22;54700;51.796;10.956;2022-07-04T05:36:33;20.50;54.40
67901;DHT22;54700;51.796;10.956;2022-07-04T05:39:00;20.40;54.60
67901;DHT22;54700;51.796;10.956;2022-07-04T05:41:28;20.20;55.30
67901;DHT22;54700;51.796;10.956;2022-07-04T05:43:54;20.00;55.80
67901;DHT22;54700;51.796;10.956;2022-07-04T05:46:21;19.70;56.10
67901;DHT22;54700;51.796;10.956;2022-07-04T05:48:50;19.50;56.80
67901;DHT22;54700;51.796;10.956;2022-07-04T05:51:18;19.30;57.40
67901;DHT22;54700;51.796;10.956;2022-07-04T05:53:48;19.30;58.20
67901;DHT22;54700;51.796;10.956;2022-07-04T05:56:15;19.20;58.40
67901;DHT22;54700;51.796;10.956;2022-07-04T05:58:43;19.20;59.00
67901;DHT22;54700;51.796;10.956;2022-07-04T06:01:09;19.10;59.20
67901;DHT22;54700;51.796;10.956;2022-07-04T06:03:37;19.00;59.10
67901;DHT22;54700;51.796;10.956;2022-07-04T06:06:05;18.90;59.30
67901;DHT22;54700;51.796;10.956;2022-07-04T06:08:36;18.80;60.00
67901;DHT22;54700;51.796;10.956;2022-07-04T06:11:03;18.70;60.30
67901;DHT22;54700;51.796;10.956;2022-07-04T06:13:30;18.70;60.70
67901;DHT22;54700;51.796;10.956;2022-07-04T06:15:58;18.60;60.90
67901;DHT22;54700;51.796;10.956;2022-07-04T06:18:25;18.40;61.50
67901;DHT22;54700;51.796;10.956;2022-07-04T06:20:52;18.50;61.80
67901;DHT22;54700;51.796;10.956;2022-07-04T06:23:22;18.50;61.50
67901;DHT22;54700;51.796;10.956;2022-07-04T06:25:53;18.40;61.80
67901;DHT22;54700;51.796;10.956;2022-07-04T06:28:20;18.40;61.70
67901;DHT22;54700;51.796;10.956;2022-07-04T06:30:47;18.50;61.90
67901;DHT22;54700;51.796;10.956;2022-07-04T06:33:14;18.70;62.00
67901;DHT22;54700;51.796;10.956;2022-07-04T06:35:41;18.80;61.80
67901;DHT22;54700;51.796;10.956;2022-07-04T06:38:20;18.90;61.80
67901;DHT22;54700;51.796;10.956;2022-07-04T06:40:49;18.90;61.10
67901;DHT22;54700;51.796;10.956;2022-07-04T06:43:20;18.80;61.00
67901;DHT22;54700;51.796;10.956;2022-07-04T06:45:49;18.80;60.90
67901;DHT22;54700;51.796;10.956;2022-07-04T06:48:17;18.80;61.90
67901;DHT22;54700;51.796;10.956;2022-07-04T06:50:44;18.70;61.10
67901;DHT22;54700;51.796;10.956;2022-07-04T06:53:11;18.70;60.80
67901;DHT22;54700;51.796;10.956;2022-07-04T06:55:38;18.80;59.50
67901;DHT22;54700;51.796;10.956;2022-07-04T06:58:08;18.80;58.50
67901;DHT22;54700;51.796;10.956;2022-07-04T07:00:38;18.80;58.50
67901;DHT22;54700;51.796;10.956;2022-07-04T07:03:07;18.80;59.10
67901;DHT22;54700;51.796;10.956;2022-07-04T07:05:36;18.90;59.00
67901;DHT22;54700;51.796;10.956;2022-07-04T07:08:03;18.80;58.20
67901;DHT22;54700;51.796;10.956;2022-07-04T07:10:30;18.70;58.10
67901;DHT22;54700;51.796;10.956;2022-07-04T07:13:01;18.70;58.50
67901;DHT22;54700;51.796;10.956;2022-07-04T07:15:34;18.60;59.00
67901;DHT22;54700;51.796;10.956;2022-07-04T07:18:23;18.50;59.50
67901;DHT22;54700;51.796;10.956;2022-07-04T07:20:52;18.40;59.40
67901;DHT22;54700;51.796;10.956;2022-07-04T07:23:18;18.50;58.90
67901;DHT22;54700;51.796;10.956;2022-07-04T07:25:46;18.60;59.40
67901;DHT22;54700;51.796;10.956;2022-07-04T07:28:13;18.70;59.40
67901;DHT22;54700;51.796;10.956;2022-07-04T07:30:39;18.70;58.10
67901;DHT22;54700;51.796;10.956;2022-07-04T07:33:09;18.70;58.90
67901;DHT22;54700;51.796;10.956;2022-07-04T07:35:37;18.80;59.50
67901;DHT22;54700;51.796;10.956;2022-07-04T07:38:06;18.80;60.10
67901;DHT22;54700;51.796;10.956;2022-07-04T07:40:33;18.80;59.20
67901;DHT22;54700;51.796;10.956;2022-07-04T07:43:00;18.80;59.70
67901;DHT22;54700;51.796;10.956;2022-07-04T07:45:27;18.90;59.20
67901;DHT22;54700;51.796;10.956;2022-07-04T07:47:54;19.10;58.70
67901;DHT22;54700;51.796;10.956;2022-07-04T07:50:23;19.30;57.80
67901;DHT22;54700;51.796;10.956;2022-07-04T07:52:50;19.50;56.80
67901;DHT22;54700;51.796;10.956;2022-07-04T07:55:16;19.60;55.90
67901;DHT22;54700;51.796;10.956;2022-07-04T07:57:44;19.70;55.60
67901;DHT22;54700;51.796;10.956;2022-07-04T08:00:11;19.70;55.50
67901;DHT22;54700;51.796;10.956;2022-07-04T08:02:39;19.70;56.00
67901;DHT22;54700;51.796;10.956;2022-07-04T08:05:25;19.60;56.20
67901;DHT22;54700;51.796;10.956;2022-07-04T08:07:52;19.30;57.50
67901;DHT22;54700;51.796;10.956;2022-07-04T08:10:19;19.10;57.30
67901;DHT22;54700;51.796;10.956;2022-07-04T08:12:46;19.10;57.80
67901;DHT22;54700;51.796;10.956;2022-07-04T08:15:13;19.00;57.20
67901;DHT22;54700;51.796;10.956;2022-07-04T08:17:40;18.90;57.50
67901;DHT22;54700;51.796;10.956;2022-07-04T08:20:07;18.90;57.50
67901;DHT22;54700;51.796;10.956;2022-07-04T08:22:36;18.90;57.40
67901;DHT22;54700;51.796;10.956;2022-07-04T08:25:03;18.90;57.50
67901;DHT22;54700;51.796;10.956;2022-07-04T08:27:31;18.90;57.50
67901;DHT22;54700;51.796;10.956;2022-07-04T08:29:57;18.90;57.40
67901;DHT22;54700;51.796;10.956;2022-07-04T08:32:25;19.00;56.80
67901;DHT22;54700;51.796;10.956;2022-07-04T08:34:52;19.20;56.70
67901;DHT22;54700;51.796;10.956;2022-07-04T08:37:20;19.40;55.30
67901;DHT22;54700;51.796;10.956;2022-07-04T08:39:48;19.50;54.60
67901;DHT22;54700;51.796;10.956;2022-07-04T08:42:19;19.60;54.70
67901;DHT22;54700;51.796;10.956;2022-07-04T08:44:48;19.60;55.30
67901;DHT22;54700;51.796;10.956;2022-07-04T08:47:16;19.60;55.50
67901;DHT22;54700;51.796;10.956;2022-07-04T08:49:46;19.50;55.90
67901;DHT22;54700;51.796;10.956;2022-07-04T08:52:23;19.40;54.90
67901;DHT22;54700;51.796;10.956;2022-07-04T08:54:58;19.30;55.10
67901;DHT22;54700;51.796;10.956;2022-07-04T08:57:52;19.40;55.00
67901;DHT22;54700;51.796;10.956;2022-07-04T09:00:38;19.60;54.10
67901;DHT22;54700;51.796;10.956;2022-07-04T09:03:05;19.90;53.50
67901;DHT22;54700;51.796;10.956;2022-07-04T09:05:36;20.10;52.40
67901;DHT22;54700;51.796;10.956;2022-07-04T09:08:03;20.20;51.20
67901;DHT22;54700;51.796;10.956;2022-07-04T09:10:32;20.40;51.80
67901;DHT22;54700;51.796;10.956;2022-07-04T09:13:00;20.70;51.00
67901;DHT22;54700;51.796;10.956;2022-07-04T09:15:32;20.80;51.50
67901;DHT22;54700;51.796;10.956;2022-07-04T09:17:59;20.60;51.60
67901;DHT22;54700;51.796;10.956;2022-07-04T09:20:30;20.50;52.30
67901;DHT22;54700;51.796;10.956;2022-07-04T09:23:00;20.20;51.30
67901;DHT22;54700;51.796;10.956;2022-07-04T09:25:44;20.00;52.20
67901;DHT22;54700;51.796;10.956;2022-07-04T09:28:11;20.00;52.50
67901;DHT22;54700;51.796;10.956;2022-07-04T09:30:53;20.00;52.80
67901;DHT22;54700;51.796;10.956;2022-07-04T09:33:20;20.20;52.10
67901;DHT22;54700;51.796;10.956;2022-07-04T09:35:48;20.30;51.40
67901;DHT22;54700;51.796;10.956;2022-07-04T09:38:22;20.30;50.30
67901;DHT22;54700;51.796;10.956;2022-07-04T09:40:53;20.30;50.60
67901;DHT22;54700;51.796;10.956;2022-07-04T09:43:40;20.30;51.00
67901;DHT22;54700;51.796;10.956;2022-07-04T09:46:33;20.20;51.00
67901;DHT22;54700;51.796;10.956;2022-07-04T09:49:00;20.30;51.30
67901;DHT22;54700;51.796;10.956;2022-07-04T09:51:40;20.30;51.00
67901;DHT22;54700;51.796;10.956;2022-07-04T09:54:15;20.50;50.40
67901;DHT22;54700;51.796;10.956;2022-07-04T09:56:57;20.70;51.10
67901;DHT22;54700;51.796;10.956;2022-07-04T09:59:28;20.80;49.60
67901;DHT22;54700;51.796;10.956;2022-07-04T10:02:07;21.00;49.30
67901;DHT22;54700;51.796;10.956;2022-07-04T10:04:46;21.10;48.20
67901;DHT22;54700;51.796;10.956;2022-07-04T10:07:29;21.10;48.50
67901;DHT22;54700;51.796;10.956;2022-07-04T10:10:21;21.00;48.90
67901;DHT22;54700;51.796;10.956;2022-07-04T10:12:51;20.70;48.20
67901;DHT22;54700;51.796;10.956;2022-07-04T10:15:20;20.60;48.90
67901;DHT22;54700;51.796;10.956;2022-07-04T10:17:48;20.70;49.10
67901;DHT22;54700;51.796;10.956;2022-07-04T10:20:18;20.70;48.90
67901;DHT22;54700;51.796;10.956;2022-07-04T10:22:45;20.80;48.60
67901;DHT22;54700;51.796;10.956;2022-07-04T10:25:13;20.80;48.70
67901;DHT22;54700;51.796;10.956;2022-07-04T10:27:46;20.90;48.50
67901;DHT22;54700;51.796;10.956;2022-07-04T10:30:17;21.10;46.40
67901;DHT22;54700;51.796;10.956;2022-07-04T10:32:48;21.40;46.80
67901;DHT22;54700;51.796;10.956;2022-07-04T10:35:17;21.70;47.30
67901;DHT22;54700;51.796;10.956;2022-07-04T10:38:19;21.80;45.50
67901;DHT22;54700;51.796;10.956;2022-07-04T10:40:47;21.80;45.80
67901;DHT22;54700;51.796;10.956;2022-07-04T10:46:35;21.70;45.70
67901;DHT22;54700;51.796;10.956;2022-07-04T10:49:07;21.70;45.20
67901;DHT22;54700;51.796;10.956;2022-07-04T10:51:43;21.70;45.70
67901;DHT22;54700;51.796;10.956;2022-07-04T10:54:12;21.90;46.10
67901;DHT22;54700;51.796;10.956;2022-07-04T10:56:47;22.00;45.60
67901;DHT22;54700;51.796;10.956;2022-07-04T10:59:16;21.90;44.90
67901;DHT22;54700;51.796;10.956;2022-07-04T11:01:47;21.80;44.40
67901;DHT22;54700;51.796;10.956;2022-07-04T11:07:12;21.50;45.50
67901;DHT22;54700;51.796;10.956;2022-07-04T11:09:39;21.70;45.60
67901;DHT22;54700;51.796;10.956;2022-07-04T11:12:06;21.80;43.70
67901;DHT22;54700;51.796;10.956;2022-07-04T11:14:34;22.00;43.20
67901;DHT22;54700;51.796;10.956;2022-07-04T11:17:07;22.10;43.20
67901;DHT22;54700;51.796;10.956;2022-07-04T11:19:35;22.00;43.90
67901;DHT22;54700;51.796;10.956;2022-07-04T11:22:03;22.10;44.30
67901;DHT22;54700;51.796;10.956;2022-07-04T11:24:31;22.00;43.60
67901;DHT22;54700;51.796;10.956;2022-07-04T11:26:58;22.00;44.20
67901;DHT22;54700;51.796;10.956;2022-07-04T11:29:27;21.90;44.10
67901;DHT22;54700;51.796;10.956;2022-07-04T11:31:55;21.80;44.00
67901;DHT22;54700;51.796;10.956;2022-07-04T11:34:23;21.80;44.60
67901;DHT22;54700;51.796;10.956;2022-07-04T11:36:53;21.90;43.80
67901;DHT22;54700;51.796;10.956;2022-07-04T11:39:23;22.00;43.20
67901;DHT22;54700;51.796;10.956;2022-07-04T11:41:53;22.10;43.20
67901;DHT22;54700;51.796;10.956;2022-07-04T11:44:38;22.20;43.40
67901;DHT22;54700;51.796;10.956;2022-07-04T11:47:25;22.30;43.40
67901;DHT22;54700;51.796;10.956;2022-07-04T11:50:00;22.20;42.70
67901;DHT22;54700;51.796;10.956;2022-07-04T11:52:28;22.30;42.90
67901;DHT22;54700;51.796;10.956;2022-07-04T11:54:55;22.20;42.00
67901;DHT22;54700;51.796;10.956;2022-07-04T11:57:24;22.20;42.60
67901;DHT22;54700;51.796;10.956;2022-07-04T11:59:58;22.00;42.00
67901;DHT22;54700;51.796;10.956;2022-07-04T12:02:28;22.10;43.20
67901;DHT22;54700;51.796;10.956;2022-07-04T12:04:56;22.20;41.60
67901;DHT22;54700;51.796;10.956;2022-07-04T12:07:25;22.40;41.90
67901;DHT22;54700;51.796;10.956;2022-07-04T12:09:53;22.60;41.50
67901;DHT22;54700;51.796;10.956;2022-07-04T12:12:21;22.70;41.00
67901;DHT22;54700;51.796;10.956;2022-07-04T12:15:02;22.90;41.10
67901;DHT22;54700;51.796;10.956;2022-07-04T12:17:31;22.90;40.00
67901;DHT22;54700;51.796;10.956;2022-07-04T12:20:00;22.70;39.80
67901;DHT22;54700;51.796;10.956;2022-07-04T12:22:32;22.60;40.90
67901;DHT22;54700;51.796;10.956;2022-07-04T12:25:03;22.50;40.80
67901;DHT22;54700;51.796;10.956;2022-07-04T12:27:32;22.50;40.90
67901;DHT22;54700;51.796;10.956;2022-07-04T12:29:59;22.50;40.90
67901;DHT22;54700;51.796;10.956;2022-07-04T12:32:49;22.40;41.20
67901;DHT22;54700;51.796;10.956;2022-07-04T12:35:37;22.40;41.50
67901;DHT22;54700;51.796;10.956;2022-07-04T12:38:11;22.50;41.10
67901;DHT22;54700;51.796;10.956;2022-07-04T12:40:55;22.60;41.10
67901;DHT22;54700;51.796;10.956;2022-07-04T12:43:23;22.60;41.10
67901;DHT22;54700;51.796;10.956;2022-07-04T12:45:52;22.60;41.20
67901;DHT22;54700;51.796;10.956;2022-07-04T12:48:22;22.60;41.50
67901;DHT22;54700;51.796;10.956;2022-07-04T12:50:51;22.80;41.50
67901;DHT22;54700;51.796;10.956;2022-07-04T12:53:20;22.90;40.70
67901;DHT22;54700;51.796;10.956;2022-07-04T12:55:47;23.00;40.80
67901;DHT22;54700;51.796;10.956;2022-07-04T12:58:15;23.00;40.70
67901;DHT22;54700;51.796;10.956;2022-07-04T13:00:42;22.80;40.60
67901;DHT22;54700;51.796;10.956;2022-07-04T13:03:09;22.60;40.70
67901;DHT22;54700;51.796;10.956;2022-07-04T13:05:36;22.60;40.90
67901;DHT22;54700;51.796;10.956;2022-07-04T13:08:04;22.70;40.90
67901;DHT22;54700;51.796;10.956;2022-07-04T13:10:33;23.00;40.90
67901;DHT22;54700;51.796;10.956;2022-07-04T13:13:00;23.00;40.40
67901;DHT22;54700;51.796;10.956;2022-07-04T13:15:26;23.10;39.70
67901;DHT22;54700;51.796;10.956;2022-07-04T13:17:55;23.00;40.00
67901;DHT22;54700;51.796;10.956;2022-07-04T13:20:24;23.10;40.60
67901;DHT22;54700;51.796;10.956;2022-07-04T13:22:53;23.10;40.10
67901;DHT22;54700;51.796;10.956;2022-07-04T13:25:20;23.10;40.40
67901;DHT22;54700;51.796;10.956;2022-07-04T13:27:49;23.10;39.70
67901;DHT22;54700;51.796;10.956;2022-07-04T13:30:16;22.90;39.80
67901;DHT22;54700;51.796;10.956;2022-07-04T13:32:43;22.90;40.00
67901;DHT22;54700;51.796;10.956;2022-07-04T13:35:10;23.00;40.20
67901;DHT22;54700;51.796;10.956;2022-07-04T13:37:37;22.90;39.80
67901;DHT22;54700;51.796;10.956;2022-07-04T13:40:05;22.90;40.40
67901;DHT22;54700;51.796;10.956;2022-07-04T13:42:33;22.90;40.00
67901;DHT22;54700;51.796;10.956;2022-07-04T13:45:18;22.80;39.60
67901;DHT22;54700;51.796;10.956;2022-07-04T13:47:48;22.80;40.50
67901;DHT22;54700;51.796;10.956;2022-07-04T13:50:21;22.80;39.50
67901;DHT22;54700;51.796;10.956;2022-07-04T13:52:49;22.70;39.60
67901;DHT22;54700;51.796;10.956;2022-07-04T13:55:18;22.60;40.20
67901;DHT22;54700;51.796;10.956;2022-07-04T13:57:48;22.60;40.20
67901;DHT22;54700;51.796;10.956;2022-07-04T14:00:20;22.50;39.90
67901;DHT22;54700;51.796;10.956;2022-07-04T14:02:50;22.40;40.10
67901;DHT22;54700;51.796;10.956;2022-07-04T14:05:17;22.70;40.30
67901;DHT22;54700;51.796;10.956;2022-07-04T14:07:44;22.90;39.50
67901;DHT22;54700;51.796;10.956;2022-07-04T14:10:10;22.90;39.10
67901;DHT22;54700;51.796;10.956;2022-07-04T14:12:40;23.00;39.50
67901;DHT22;54700;51.796;10.956;2022-07-04T14:15:07;23.10;38.60
67901;DHT22;54700;51.796;10.956;2022-07-04T14:17:36;23.00;39.00
67901;DHT22;54700;51.796;10.956;2022-07-04T14:20:03;23.00;38.90
67901;DHT22;54700;51.796;10.956;2022-07-04T14:22:32;22.90;39.20
67901;DHT22;54700;51.796;10.956;2022-07-04T14:25:00;23.00;38.60
67901;DHT22;54700;51.796;10.956;2022-07-04T14:27:27;23.10;38.30
67901;DHT22;54700;51.796;10.956;2022-07-04T14:29:53;23.20;38.00
67901;DHT22;54700;51.796;10.956;2022-07-04T14:32:20;23.20;37.90
67901;DHT22;54700;51.796;10.956;2022-07-04T14:34:49;23.10;37.90
67901;DHT22;54700;51.796;10.956;2022-07-04T14:37:15;23.00;38.20
67901;DHT22;54700;51.796;10.956;2022-07-04T14:39:42;23.00;37.80
67901;DHT22;54700;51.796;10.956;2022-07-04T14:42:09;23.00;38.10
67901;DHT22;54700;51.796;10.956;2022-07-04T14:44:36;23.00;38.70
67901;DHT22;54700;51.796;10.956;2022-07-04T14:47:03;23.20;37.60
67901;DHT22;54700;51.796;10.956;2022-07-04T14:49:31;23.30;37.80
67901;DHT22;54700;51.796;10.956;2022-07-04T14:52:00;23.40;37.10
67901;DHT22;54700;51.796;10.956;2022-07-04T14:54:26;23.30;37.00
67901;DHT22;54700;51.796;10.956;2022-07-04T14:56:53;23.10;37.20
67901;DHT22;54700;51.796;10.956;2022-07-04T14:59:20;23.00;37.60
67901;DHT22;54700;51.796;10.956;2022-07-04T15:01:46;22.80;37.70
67901;DHT22;54700;51.796;10.956;2022-07-04T15:04:15;22.70;38.10
67901;DHT22;54700;51.796;10.956;2022-07-04T15:06:41;22.60;37.60
67901;DHT22;54700;51.796;10.956;2022-07-04T15:09:11;22.50;38.10
67901;DHT22;54700;51.796;10.956;2022-07-04T15:11:38;22.60;38.30
67901;DHT22;54700;51.796;10.956;2022-07-04T15:14:04;22.80;37.70
67901;DHT22;54700;51.796;10.956;2022-07-04T15:16:31;23.00;37.80
67901;DHT22;54700;51.796;10.956;2022-07-04T15:18:58;23.00;37.60
67901;DHT22;54700;51.796;10.956;2022-07-04T15:21:25;23.00;37.30
67901;DHT22;54700;51.796;10.956;2022-07-04T15:24:09;23.00;37.60
67901;DHT22;54700;51.796;10.956;2022-07-04T15:26:41;23.10;37.50
67901;DHT22;54700;51.796;10.956;2022-07-04T15:29:10;23.10;37.20
67901;DHT22;54700;51.796;10.956;2022-07-04T15:31:37;23.00;37.40
67901;DHT22;54700;51.796;10.956;2022-07-04T15:34:06;23.00;37.50